createdAt,value
2023-02-07T00:01:33.932Z,11.27
2023-02-07T00:04:01.946Z,11.30
2023-02-07T00:06:35.295Z,15.07
2023-02-07T00:09:07.484Z,11.70
2023-02-07T00:11:36.757Z,13.00
2023-02-07T00:14:08.723Z,13.05
2023-02-07T00:16:36.692Z,12.50
2023-02-07T00:19:06.434Z,15.80
2023-02-07T00:21:34.716Z,14.60
2023-02-07T00:24:02.744Z,13.35
2023-02-07T00:26:30.734Z,16.92
2023-02-07T00:28:58.855Z,13.02
2023-02-07T00:31:30.249Z,15.77
2023-02-07T00:34:00.850Z,13.90
2023-02-07T00:36:31.038Z,11.23
2023-02-07T00:39:01.139Z,15.38
2023-02-07T00:41:29.779Z,14.27
2023-02-07T00:43:57.893Z,15.25
2023-02-07T00:46:32.816Z,16.88
2023-02-07T00:49:11.603Z,16.50
2023-02-07T00:51:40.538Z,15.68
2023-02-07T00:54:08.579Z,15.82
2023-02-07T00:56:37.239Z,16.48
2023-02-07T00:59:05.608Z,15.82
2023-02-07T01:01:33.584Z,16.05
2023-02-07T01:04:01.822Z,16.63
2023-02-07T01:06:34.015Z,22.27
2023-02-07T01:09:02.969Z,21.58
2023-02-07T01:11:30.991Z,16.60
2023-02-07T01:14:01.148Z,18.85
2023-02-07T01:16:34.977Z,16.67
2023-02-07T01:19:08.561Z,20.90
2023-02-07T01:21:36.664Z,17.25
2023-02-07T01:24:06.419Z,19.58
2023-02-07T01:26:36.674Z,19.48
2023-02-07T01:29:05.191Z,20.80
2023-02-07T01:31:33.127Z,17.95
2023-02-07T01:34:05.205Z,17.92
2023-02-07T01:36:33.515Z,18.40
2023-02-07T01:39:01.440Z,21.40
2023-02-07T01:41:29.430Z,19.92
2023-02-07T01:44:29.324Z,21.80
2023-02-07T01:46:57.762Z,18.65
2023-02-07T01:49:31.918Z,19.60
2023-02-07T01:52:05.636Z,18.80
2023-02-07T01:54:34.992Z,21.00
2023-02-07T01:57:06.081Z,19.60
2023-02-07T01:59:36.457Z,23.55
2023-02-07T02:02:05.517Z,21.48
2023-02-07T02:04:33.261Z,18.45
2023-02-07T02:07:01.554Z,20.80
2023-02-07T02:09:30.522Z,28.42
2023-02-07T02:12:01.784Z,26.20
2023-02-07T02:14:51.560Z,18.10
2023-02-07T02:17:25.353Z,16.27
2023-02-07T02:20:16.208Z,20.23
2023-02-07T02:22:50.075Z,21.73
2023-02-07T02:25:55.577Z,22.08
2023-02-07T02:28:49.678Z,21.00
2023-02-07T02:31:48.593Z,17.65
2023-02-07T02:34:36.732Z,24.13
2023-02-07T02:37:15.327Z,23.85
2023-02-07T02:40:00.170Z,19.33
2023-02-07T02:43:01.553Z,18.58
2023-02-07T02:45:52.155Z,17.25
2023-02-07T02:48:20.888Z,15.20
2023-02-07T02:50:50.009Z,19.58
2023-02-07T02:53:18.222Z,19.42
2023-02-07T02:56:01.418Z,20.63
2023-02-07T02:59:04.891Z,16.52
2023-02-07T03:02:08.357Z,18.65
2023-02-07T03:04:56.383Z,18.45
2023-02-07T03:08:05.316Z,19.35
2023-02-07T03:10:49.009Z,19.05
2023-02-07T03:13:52.088Z,19.08
2023-02-07T03:16:55.526Z,21.35
2023-02-07T03:20:03.377Z,20.98
2023-02-07T03:22:31.474Z,23.00
2023-02-07T03:25:02.317Z,19.65
2023-02-07T03:27:33.186Z,20.65
2023-02-07T03:30:04.432Z,25.40
2023-02-07T03:32:36.616Z,17.75
2023-02-07T03:35:18.662Z,18.85
2023-02-07T03:40:28.185Z,15.93
2023-02-07T03:43:06.737Z,14.40
2023-02-07T03:45:35.085Z,13.95
2023-02-07T03:48:02.930Z,19.73
2023-02-07T03:50:30.852Z,20.55
2023-02-07T03:52:58.748Z,21.42
2023-02-07T03:55:26.848Z,19.10
2023-02-07T03:57:56.625Z,19.88
2023-02-07T04:00:24.774Z,19.23
2023-02-07T04:02:52.668Z,16.90
2023-02-07T04:05:20.739Z,19.10
2023-02-07T04:07:48.713Z,20.15
2023-02-07T04:10:16.684Z,21.30
2023-02-07T04:12:44.713Z,23.05
2023-02-07T04:15:13.248Z,17.20
2023-02-07T04:17:41.069Z,23.37
2023-02-07T04:20:09.801Z,18.95
2023-02-07T04:22:37.794Z,15.85
2023-02-07T04:25:06.563Z,17.80
2023-02-07T04:27:34.684Z,16.42
2023-02-07T04:30:02.688Z,14.68
2023-02-07T04:32:30.553Z,19.67
2023-02-07T04:34:59.965Z,16.10
2023-02-07T04:37:28.104Z,13.97
2023-02-07T04:39:56.091Z,14.50
2023-02-07T04:42:24.054Z,17.20
2023-02-07T04:44:52.077Z,18.73
2023-02-07T04:47:19.787Z,15.33
2023-02-07T04:49:47.614Z,15.20
2023-02-07T04:52:15.718Z,16.63
2023-02-07T04:54:43.571Z,14.20
2023-02-07T04:57:11.707Z,13.90
2023-02-07T04:59:39.477Z,13.50
2023-02-07T05:02:07.345Z,15.23
2023-02-07T05:04:35.406Z,13.55
2023-02-07T05:07:03.653Z,17.50
2023-02-07T05:09:31.588Z,14.77
2023-02-07T05:11:59.401Z,16.98
2023-02-07T05:14:27.189Z,16.23
2023-02-07T05:16:57.847Z,14.93
2023-02-07T05:19:26.251Z,15.93
2023-02-07T05:21:53.986Z,18.67
2023-02-07T05:24:21.904Z,18.67
2023-02-07T05:26:49.671Z,16.90
2023-02-07T05:29:17.658Z,16.92
2023-02-07T05:32:05.301Z,15.68
2023-02-07T05:34:34.852Z,16.50
2023-02-07T05:37:02.858Z,15.40
2023-02-07T05:39:30.903Z,14.97
2023-02-07T05:41:58.879Z,18.07
2023-02-07T05:44:26.753Z,22.07
2023-02-07T05:46:54.697Z,17.47
2023-02-07T05:49:22.791Z,14.80
2023-02-07T05:51:50.738Z,17.60
2023-02-07T05:54:18.734Z,15.40
2023-02-07T05:56:46.874Z,17.30
2023-02-07T05:59:14.861Z,19.07
2023-02-07T06:01:42.955Z,18.00
2023-02-07T06:04:10.792Z,16.17
2023-02-07T06:06:38.866Z,16.50
2023-02-07T06:09:06.614Z,16.40
2023-02-07T06:11:34.455Z,16.43
2023-02-07T06:14:02.542Z,17.37
2023-02-07T06:16:30.456Z,17.13
2023-02-07T06:18:58.793Z,18.47
2023-02-07T06:21:44.358Z,16.93
2023-02-07T06:24:14.566Z,18.07
2023-02-07T06:26:42.454Z,19.63
2023-02-07T06:29:10.290Z,18.57
2023-02-07T06:31:38.188Z,16.97
2023-02-07T06:34:06.272Z,19.67
2023-02-07T06:36:35.555Z,17.57
2023-02-07T06:39:03.792Z,16.13
2023-02-07T06:41:31.672Z,18.27
2023-02-07T06:43:59.453Z,17.50
2023-02-07T06:46:27.395Z,18.63
2023-02-07T06:48:55.177Z,17.40
2023-02-07T06:51:23.073Z,17.47
2023-02-07T06:53:50.890Z,16.93
2023-02-07T06:56:18.804Z,18.10
2023-02-07T06:58:49.969Z,16.67
2023-02-07T07:01:20.417Z,16.83
2023-02-07T07:03:48.424Z,20.63
2023-02-07T07:06:16.425Z,16.73
2023-02-07T07:08:44.345Z,21.88
2023-02-07T07:11:12.469Z,18.33
2023-02-07T07:13:40.451Z,19.33
2023-02-07T07:16:08.290Z,19.00
2023-02-07T07:18:38.609Z,21.63
2023-02-07T07:21:09.648Z,20.83
2023-02-07T07:23:37.884Z,20.37
2023-02-07T07:26:06.306Z,22.85
2023-02-07T07:28:35.839Z,20.08
2023-02-07T07:31:05.624Z,26.67
2023-02-07T07:33:34.240Z,31.35
2023-02-07T07:36:03.508Z,25.88
2023-02-07T07:38:31.806Z,22.20
2023-02-07T07:41:00.022Z,25.30
2023-02-07T07:43:28.161Z,23.80
2023-02-07T07:45:57.720Z,23.65
2023-02-07T07:48:26.473Z,22.10
2023-02-07T07:50:55.616Z,26.48
2023-02-07T07:53:23.694Z,28.27
2023-02-07T07:55:55.366Z,23.73
2023-02-07T07:58:24.884Z,23.92
2023-02-07T08:00:53.115Z,22.30
2023-02-07T08:03:25.650Z,26.50
2023-02-07T08:05:53.854Z,25.27
2023-02-07T08:08:23.576Z,26.50
2023-02-07T08:10:51.524Z,28.38
2023-02-07T08:13:20.468Z,28.80
2023-02-07T08:15:48.591Z,27.45
2023-02-07T08:18:16.490Z,25.50
2023-02-07T08:20:44.661Z,23.25
2023-02-07T08:23:12.639Z,30.17
2023-02-07T08:25:44.816Z,27.60
2023-02-07T08:28:13.528Z,21.08
2023-02-07T08:30:41.528Z,27.58
2023-02-07T08:33:12.800Z,29.00
2023-02-07T08:35:40.981Z,23.63
2023-02-07T08:38:09.181Z,26.80
2023-02-07T08:40:41.121Z,27.50
2023-02-07T08:43:12.664Z,26.17
2023-02-07T08:45:49.760Z,28.17
2023-02-07T08:48:17.819Z,26.48
2023-02-07T08:50:45.890Z,25.77
2023-02-07T08:53:14.040Z,26.17
2023-02-07T08:55:42.114Z,22.55
2023-02-07T08:58:10.392Z,24.38
2023-02-07T09:00:38.827Z,25.65
2023-02-07T09:03:06.750Z,28.73
2023-02-07T09:05:34.479Z,22.23
2023-02-07T09:08:03.285Z,22.20
2023-02-07T09:10:31.292Z,27.02
2023-02-07T09:12:59.382Z,26.55
2023-02-07T09:15:27.536Z,22.77
2023-02-07T09:17:55.437Z,23.52
2023-02-07T09:20:26.256Z,26.33
2023-02-07T09:23:12.963Z,23.55
2023-02-07T09:25:42.787Z,19.13
2023-02-07T09:28:11.114Z,24.15
2023-02-07T09:30:42.189Z,21.60
2023-02-07T09:33:11.389Z,21.23
2023-02-07T09:35:40.242Z,21.05
2023-02-07T09:38:09.849Z,22.98
2023-02-07T09:40:39.975Z,18.30
2023-02-07T09:43:14.184Z,21.58
2023-02-07T09:45:46.394Z,16.38
2023-02-07T09:48:20.451Z,14.80
2023-02-07T09:50:55.774Z,15.85
2023-02-07T09:53:46.537Z,15.88
2023-02-07T09:56:19.558Z,16.63
2023-02-07T09:59:33.789Z,17.75
2023-02-07T10:02:06.222Z,14.00
2023-02-07T10:04:39.216Z,13.80
2023-02-07T10:07:08.272Z,11.70
2023-02-07T10:09:41.324Z,10.98
2023-02-07T10:12:17.998Z,11.30
2023-02-07T10:15:21.150Z,11.50
2023-02-07T10:18:07.518Z,12.68
2023-02-07T10:21:13.853Z,11.95
2023-02-07T10:24:02.281Z,12.55
2023-02-07T10:26:45.928Z,14.32
2023-02-07T10:29:38.723Z,14.90
2023-02-07T10:32:24.935Z,13.57
2023-02-07T10:34:59.844Z,11.52
2023-02-07T10:37:30.588Z,11.18
2023-02-07T10:40:06.414Z,12.43
2023-02-07T10:42:37.859Z,12.77
2023-02-07T10:45:09.659Z,12.95
2023-02-07T10:47:41.037Z,11.38
2023-02-07T10:50:29.303Z,11.50
2023-02-07T10:52:59.853Z,13.93
2023-02-07T10:55:42.378Z,12.40
2023-02-07T10:58:22.844Z,12.07
2023-02-07T11:00:54.061Z,13.13
2023-02-07T11:06:08.108Z,13.55
2023-02-07T11:08:38.301Z,10.68
2023-02-07T11:11:30.159Z,9.35
2023-02-07T11:14:04.040Z,10.10
2023-02-07T11:16:32.321Z,10.68
2023-02-07T11:19:03.020Z,8.57
2023-02-07T11:21:40.104Z,17.40
2023-02-07T11:24:19.812Z,9.85
2023-02-07T11:27:04.776Z,11.32
2023-02-07T11:29:38.095Z,11.50
2023-02-07T11:32:06.542Z,9.27
2023-02-07T11:34:43.584Z,15.65
2023-02-07T11:37:25.065Z,9.23
2023-02-07T11:39:56.264Z,8.88
2023-02-07T11:42:32.226Z,8.25
2023-02-07T11:45:05.170Z,8.30
2023-02-07T11:47:33.575Z,9.82
2023-02-07T11:50:04.184Z,8.00
2023-02-07T11:52:39.849Z,6.88
2023-02-07T11:55:09.684Z,8.95
2023-02-07T11:57:38.691Z,9.95
2023-02-07T12:00:27.996Z,9.45
2023-02-07T12:03:09.167Z,7.85
2023-02-07T12:05:40.223Z,8.73
2023-02-07T12:08:13.924Z,8.02
2023-02-07T12:10:45.236Z,9.43
2023-02-07T12:13:15.785Z,9.43
2023-02-07T12:15:53.495Z,10.10
2023-02-07T12:18:32.067Z,10.50
2023-02-07T12:21:19.955Z,7.78
2023-02-07T12:23:50.477Z,10.15
2023-02-07T12:26:28.842Z,10.50
2023-02-07T12:29:22.891Z,9.05
2023-02-07T12:32:05.167Z,10.02
2023-02-07T12:34:42.103Z,9.20
2023-02-07T12:37:32.780Z,8.88
2023-02-07T12:40:27.353Z,9.65
2023-02-07T12:43:06.817Z,9.35
2023-02-07T12:45:47.925Z,12.02
2023-02-07T12:48:40.057Z,9.65
2023-02-07T12:51:17.616Z,9.48
2023-02-07T12:54:30.219Z,10.68
2023-02-07T12:57:19.325Z,9.73
2023-02-07T13:00:18.464Z,10.23
2023-02-07T13:03:20.601Z,9.10
2023-02-07T13:06:01.517Z,10.82
2023-02-07T13:11:18.981Z,10.75
2023-02-07T13:13:49.721Z,10.88
2023-02-07T13:16:37.913Z,12.63
2023-02-07T13:19:23.522Z,12.15
2023-02-07T13:22:02.442Z,13.43
2023-02-07T13:24:31.485Z,12.10
2023-02-07T13:27:04.284Z,11.60
2023-02-07T13:29:34.445Z,14.50
2023-02-07T13:32:13.521Z,14.93
2023-02-07T13:35:11.597Z,14.02
2023-02-07T13:37:50.289Z,14.63
2023-02-07T13:40:49.966Z,13.50
2023-02-07T13:43:37.985Z,13.93
2023-02-07T13:46:32.346Z,15.23
2023-02-07T13:49:24.788Z,13.35
2023-02-07T13:52:02.875Z,11.73
2023-02-07T13:55:10.746Z,18.70
2023-02-07T13:58:02.305Z,16.77
2023-02-07T14:00:34.018Z,18.92
2023-02-07T14:03:06.875Z,18.70
2023-02-07T14:05:43.796Z,16.33
2023-02-07T14:08:17.872Z,18.73
2023-02-07T14:11:01.651Z,21.23
2023-02-07T14:13:31.335Z,21.13
2023-02-07T14:16:02.392Z,21.52
2023-02-07T14:18:40.905Z,20.55
2023-02-07T14:21:21.318Z,16.08
2023-02-07T14:24:04.232Z,19.05
2023-02-07T14:26:46.422Z,20.58
2023-02-07T14:29:23.279Z,16.85
2023-02-07T14:32:02.029Z,20.60
2023-02-07T14:34:32.365Z,21.15
2023-02-07T14:37:01.022Z,23.05
2023-02-07T14:39:31.660Z,21.35
2023-02-07T14:42:19.119Z,23.23
2023-02-07T14:44:48.222Z,25.13
2023-02-07T14:47:42.192Z,22.33
2023-02-07T14:50:11.024Z,24.55
2023-02-07T14:52:39.787Z,26.83
2023-02-07T14:55:13.642Z,25.67
2023-02-07T14:57:56.915Z,25.90
2023-02-07T15:00:55.326Z,24.15
2023-02-07T15:03:26.302Z,25.13
2023-02-07T15:06:04.619Z,22.02
2023-02-07T15:08:35.613Z,22.83
2023-02-07T15:11:08.091Z,24.13
2023-02-07T15:13:50.007Z,23.88
2023-02-07T15:16:26.639Z,24.70
2023-02-07T15:19:24.772Z,25.15
2023-02-07T15:21:52.932Z,23.38
2023-02-07T15:24:50.960Z,26.60
2023-02-07T15:27:27.685Z,23.52
2023-02-07T15:30:01.836Z,23.58
2023-02-07T15:32:35.543Z,26.13
2023-02-07T15:35:14.173Z,25.30
2023-02-07T15:37:41.935Z,22.50
2023-02-07T15:40:23.111Z,26.95
2023-02-07T15:42:54.533Z,30.45
2023-02-07T15:45:28.256Z,25.98
2023-02-07T15:48:04.333Z,25.08
2023-02-07T15:50:32.460Z,29.65
2023-02-07T15:53:02.438Z,24.10
2023-02-07T15:55:34.770Z,29.25
2023-02-07T15:58:03.860Z,30.48
2023-02-07T16:00:38.839Z,29.25
2023-02-07T16:03:08.132Z,25.67
2023-02-07T16:05:40.438Z,29.00
2023-02-07T16:08:31.182Z,34.75
2023-02-07T16:11:17.452Z,36.17
2023-02-07T16:13:48.913Z,32.63
2023-02-07T16:16:21.102Z,30.67
2023-02-07T16:18:49.163Z,34.90
2023-02-07T16:21:26.328Z,33.05
2023-02-07T16:24:12.568Z,35.90
2023-02-07T16:26:46.652Z,33.97
2023-02-07T16:29:25.208Z,33.83
2023-02-07T16:31:54.305Z,30.05
2023-02-07T16:34:26.506Z,36.53
2023-02-07T16:36:55.668Z,33.55
2023-02-07T16:39:23.901Z,36.13
2023-02-07T16:41:55.583Z,40.55
2023-02-07T16:44:24.998Z,36.25
2023-02-07T16:46:53.808Z,34.72
2023-02-07T16:49:26.692Z,36.35
2023-02-07T16:51:55.008Z,42.75
2023-02-07T16:54:26.206Z,37.35
2023-02-07T16:56:56.436Z,41.13
2023-02-07T16:59:24.611Z,41.38
2023-02-07T17:01:54.411Z,41.58
2023-02-07T17:04:23.010Z,42.45
2023-02-07T17:06:51.549Z,44.08
2023-02-07T17:09:24.616Z,42.08
2023-02-07T17:11:53.626Z,42.72
2023-02-07T17:14:22.239Z,41.80
2023-02-07T17:16:50.564Z,46.42
2023-02-07T17:19:23.971Z,50.63
2023-02-07T17:21:52.684Z,49.50
2023-02-07T17:24:20.906Z,49.10
2023-02-07T17:26:51.542Z,41.53
2023-02-07T17:29:22.888Z,44.78
2023-02-07T17:31:51.154Z,45.63
2023-02-07T17:34:18.916Z,45.03
2023-02-07T17:36:49.242Z,41.60
2023-02-07T17:39:18.596Z,43.60
2023-02-07T17:41:46.811Z,41.30
2023-02-07T17:44:14.802Z,49.72
2023-02-07T17:46:42.737Z,43.65
2023-02-07T17:49:17.930Z,46.13
2023-02-07T17:51:46.036Z,42.55
2023-02-07T17:54:14.204Z,38.40
2023-02-07T17:56:42.352Z,46.53
2023-02-07T17:59:21.946Z,50.00
2023-02-07T18:01:52.033Z,48.60
2023-02-07T18:04:20.065Z,45.58
2023-02-07T18:06:48.268Z,50.75
2023-02-07T18:09:20.430Z,49.83
2023-02-07T18:11:49.061Z,46.22
2023-02-07T18:14:17.220Z,42.08
2023-02-07T18:16:45.306Z,47.45
2023-02-07T18:19:17.880Z,46.80
2023-02-07T18:21:46.080Z,45.55
2023-02-07T18:24:14.020Z,49.95
2023-02-07T18:26:42.452Z,45.88
2023-02-07T18:29:12.076Z,39.75
2023-02-07T18:31:40.174Z,45.75
2023-02-07T18:34:08.030Z,40.72
2023-02-07T18:36:40.745Z,40.67
2023-02-07T18:39:11.189Z,43.72
2023-02-07T18:41:39.213Z,55.38
2023-02-07T18:44:10.102Z,48.22
2023-02-07T18:46:38.413Z,50.95
2023-02-07T18:49:06.474Z,43.75
2023-02-07T18:51:35.108Z,45.65
2023-02-07T18:54:03.032Z,47.03
2023-02-07T18:56:31.091Z,49.90
2023-02-07T18:58:59.336Z,42.92
2023-02-07T19:01:28.977Z,52.67
2023-02-07T19:03:58.788Z,46.53
2023-02-07T19:06:31.306Z,42.42
2023-02-07T19:08:59.881Z,47.08
2023-02-07T19:11:28.025Z,46.42
2023-02-07T19:13:55.673Z,42.28
2023-02-07T19:16:24.797Z,46.92
2023-02-07T19:18:53.037Z,43.63
2023-02-07T19:21:27.419Z,41.67
2023-02-07T19:23:56.762Z,42.17
2023-02-07T19:26:25.320Z,44.60
2023-02-07T19:28:53.739Z,56.08
2023-02-07T19:31:25.475Z,39.10
2023-02-07T19:33:54.585Z,48.35
2023-02-07T19:36:23.797Z,43.00
2023-02-07T19:38:55.160Z,42.28
2023-02-07T19:41:27.729Z,45.42
2023-02-07T19:43:55.869Z,44.58
2023-02-07T19:46:24.252Z,40.78
2023-02-07T19:48:52.589Z,49.85
2023-02-07T19:51:22.954Z,48.80
2023-02-07T19:53:51.855Z,46.70
2023-02-07T19:56:21.124Z,42.33
2023-02-07T19:58:51.446Z,46.60
2023-02-07T20:01:20.455Z,48.30
2023-02-07T20:03:53.404Z,49.80
2023-02-07T20:06:23.961Z,39.60
2023-02-07T20:08:52.142Z,40.28
2023-02-07T20:11:22.680Z,39.33
2023-02-07T20:13:54.619Z,38.22
2023-02-07T20:18:56.166Z,37.13
2023-02-07T20:21:28.877Z,43.03
2023-02-07T20:23:57.735Z,42.97
2023-02-07T20:26:33.369Z,39.55
2023-02-07T20:29:03.774Z,42.70
2023-02-07T20:31:32.340Z,39.08
2023-02-07T20:34:04.237Z,45.90
2023-02-07T20:36:33.876Z,50.67
2023-02-07T20:39:02.425Z,40.08
2023-02-07T20:41:30.405Z,36.88
2023-02-07T20:44:07.245Z,45.15
2023-02-07T20:46:36.536Z,43.97
2023-02-07T20:49:28.689Z,43.33
2023-02-07T20:52:00.087Z,38.93
2023-02-07T20:54:29.569Z,37.60
2023-02-07T20:56:58.049Z,38.77
2023-02-07T20:59:32.835Z,34.47
2023-02-07T21:02:01.098Z,40.97
2023-02-07T21:04:29.950Z,40.53
2023-02-07T21:07:01.341Z,46.72
2023-02-07T21:09:29.690Z,35.30
2023-02-07T21:11:58.654Z,40.47
2023-02-07T21:14:32.060Z,38.10
2023-02-07T21:17:02.365Z,34.92
2023-02-07T21:19:30.246Z,35.03
2023-02-07T21:21:58.805Z,37.70
2023-02-07T21:24:27.094Z,42.60
2023-02-07T21:26:55.887Z,38.50
2023-02-07T21:29:24.202Z,41.63
2023-02-07T21:31:53.153Z,37.00
2023-02-07T21:34:22.429Z,38.30
2023-02-07T21:36:50.611Z,37.67
2023-02-07T21:39:18.870Z,40.90
2023-02-07T21:41:47.547Z,44.93
2023-02-07T21:44:16.073Z,40.72
2023-02-07T21:46:48.660Z,36.63
2023-02-07T21:49:18.248Z,36.07
2023-02-07T21:51:48.385Z,39.00
2023-02-07T21:54:16.234Z,41.63
2023-02-07T21:56:44.759Z,36.50
2023-02-07T21:59:17.878Z,42.03
2023-02-07T22:01:47.065Z,38.10
2023-02-07T22:04:15.625Z,38.73
2023-02-07T22:06:44.633Z,36.30
2023-02-07T22:09:14.142Z,37.80
2023-02-07T22:11:42.631Z,33.90
2023-02-07T22:14:15.650Z,40.30
2023-02-07T22:16:43.587Z,37.00
2023-02-07T22:19:13.920Z,28.87
2023-02-07T22:21:41.852Z,31.70
2023-02-07T22:24:12.358Z,32.87
2023-02-07T22:26:40.505Z,32.03
2023-02-07T22:29:08.986Z,34.87
2023-02-07T22:31:38.810Z,37.43
2023-02-07T22:34:14.312Z,32.10
2023-02-07T22:36:43.568Z,37.27
2023-02-07T22:39:12.974Z,30.47
2023-02-07T22:41:40.907Z,30.03
2023-02-07T22:44:08.862Z,35.33
2023-02-07T22:46:36.735Z,40.87
2023-02-07T22:49:04.501Z,32.13
2023-02-07T22:51:34.758Z,33.37
2023-02-07T22:54:05.803Z,29.03
2023-02-07T22:56:35.879Z,31.80
2023-02-07T22:59:04.464Z,31.40
2023-02-07T23:01:34.797Z,31.37
2023-02-07T23:04:04.275Z,33.77
2023-02-07T23:06:35.052Z,30.40
2023-02-07T23:09:05.425Z,28.83
2023-02-07T23:11:33.943Z,34.43
2023-02-07T23:14:04.104Z,36.17
2023-02-07T23:16:32.296Z,36.40
2023-02-07T23:19:08.157Z,37.77
2023-02-07T23:21:36.422Z,36.40
2023-02-07T23:24:04.760Z,31.30
2023-02-07T23:26:32.811Z,30.50
2023-02-07T23:29:00.524Z,40.30
2023-02-07T23:31:28.447Z,38.30
2023-02-07T23:33:56.253Z,35.17
2023-02-07T23:36:24.528Z,30.80
2023-02-07T23:38:52.414Z,32.73
2023-02-07T23:41:20.322Z,35.17
2023-02-07T23:43:48.274Z,33.30
2023-02-07T23:46:17.636Z,33.80
2023-02-07T23:48:45.951Z,37.10
2023-02-07T23:51:15.104Z,36.63
2023-02-07T23:53:44.275Z,38.40
2023-02-07T23:56:17.005Z,28.63
2023-02-07T23:58:45.323Z,32.80
